Time;durP1;ratioP1;P1;durP2;ratioP2;P2;SDS_P1;SDS_P2;PMS_P1;PMS_P2;Temp;Humidity;BMP_temperature;BMP_pressure;BME280_temperature;BME280_humidity;BME280_pressure;Samples;Min_cycle;Max_cycle;Signal;HPM_P1;HPM_P2
2021/11/02 00:00:18;;;;;;;9.93;1.53;;;;;;;;;;4885443;28;20239;-78
2021/11/02 00:02:44;;;;;;;16.80;2.30;;;;;;;;;;4885938;28;20234;-82
2021/11/02 00:05:07;;;;;;;6.23;1.10;;;8.90;48.50;;;;;;4888682;28;20224;-79
2021/11/02 00:07:31;;;;;;;7.93;1.20;;;9.00;48.60;;;;;;4887515;28;20212;-80
2021/11/02 00:09:58;;;;;;;7.83;1.20;;;9.20;48.50;;;;;;4884510;28;20193;-78
2021/11/02 00:12:22;;;;;;;11.63;1.77;;;;;;;;;;4887001;28;20193;-82
2021/11/02 00:14:45;;;;;;;16.73;2.23;;;;;;;;;;4887699;28;20211;-82
2021/11/02 00:17:12;;;;;;;7.23;1.20;;;9.10;47.30;;;;;;4887900;28;20648;-83
2021/11/02 00:19:34;;;;;;;15.57;2.03;;;9.30;47.40;;;;;;4887920;28;20238;-82
2021/11/02 00:22:05;;;;;;;9.90;1.40;;;8.90;48.50;;;;;;4882248;28;20251;-79
2021/11/02 00:24:44;;;;;;;9.60;1.43;;;8.60;48.20;;;;;;4884553;28;20235;-79
2021/11/02 00:27:07;;;;;;;10.03;1.50;;;8.90;47.90;;;;;;4891485;28;20212;-78
2021/11/02 00:29:30;;;;;;;6.83;1.10;;;;;;;;;;4887787;28;20199;-80
2021/11/02 00:31:53;;;;;;;5.00;0.87;;;;;;;;;;4886626;28;20578;-81
2021/11/02 00:34:15;;;;;;;9.97;1.53;;;8.50;47.30;;;;;;4886255;28;20241;-80
2021/11/02 00:36:38;;;;;;;17.90;2.40;;;;;;;;;;4885135;28;20185;-80
2021/11/02 00:39:02;;;;;;;5.83;1.00;;;;;;;;;;4883912;28;20189;-81
2021/11/02 00:41:26;;;;;;;9.47;1.43;;;9.10;48.70;;;;;;4886937;28;20188;-82
2021/11/02 00:43:51;;;;;;;17.27;2.30;;;;;;;;;;4891019;28;20234;-81
2021/11/02 00:46:14;;;;;;;9.93;1.53;;;;;;;;;;4885810;28;20330;-80
2021/11/02 00:48:36;;;;;;;18.23;2.40;;;9.50;48.90;;;;;;4885029;28;20584;-83
2021/11/02 00:50:59;;;;;;;9.93;1.47;;;;;;;;;;4886261;28;20647;-81
2021/11/02 00:53:23;;;;;;;8.47;1.20;;;9.20;47.60;;;;;;4887089;28;20192;-80
2021/11/02 00:55:46;;;;;;;16.97;2.30;;;;;;;;;;4881544;28;20246;-78
2021/11/02 00:58:10;;;;;;;10.67;1.57;;;9.40;48.90;;;;;;4880998;28;20659;-78
2021/11/02 01:00:33;;;;;;;74.80;9.83;;;9.40;48.70;;;;;;4880963;28;20654;-77
2021/11/02 01:02:56;;;;;;;9.47;1.50;;;;;;;;;;4882737;28;20647;-79
2021/11/02 01:05:19;;;;;;;9.77;1.50;;;9.90;49.10;;;;;;4884646;28;20217;-77
2021/11/02 01:07:41;;;;;;;20.30;2.70;;;9.70;48.20;;;;;;4884709;28;20213;-77
2021/11/02 01:10:11;;;;;;;9.43;1.40;;;10.00;47.60;;;;;;4881866;28;20613;-77
2021/11/02 01:12:34;;;;;;;10.03;1.50;;;;;;;;;;4884125;28;20193;-77
2021/11/02 01:14:58;;;;;;;9.43;1.30;;;9.60;49.10;;;;;;4884360;28;20189;-77
2021/11/02 01:17:21;;;;;;;10.13;1.60;;;;;;;;;;4890570;28;20208;-77
2021/11/02 01:19:45;;;;;;;16.23;2.33;;;;;;;;;;4882963;28;20193;-77
2021/11/02 01:22:12;;;;;;;10.03;1.53;;;;;;;;;;4890522;28;20665;-82
2021/11/02 01:24:40;;;;;;;20.83;2.77;;;10.10;47.80;;;;;;4883710;28;20239;-83
2021/11/02 01:27:03;;;;;;;11.17;1.63;;;9.80;48.40;;;;;;4885118;28;20185;-83
2021/11/02 01:29:28;;;;;;;8.90;1.30;;;;;;;;;;4882456;28;20608;-84
2021/11/02 01:31:53;;;;;;;6.13;1.03;;;9.50;49.10;;;;;;4881959;28;20246;-84
2021/11/02 01:34:17;;;;;;;5.50;0.93;;;9.50;47.80;;;;;;4890769;28;20231;-84
2021/11/02 01:36:45;;;;;;;15.33;2.13;;;;;;;;;;4882250;28;20205;-83
2021/11/02 01:39:10;;;;;;;7.80;1.23;;;;;;;;;;4886595;28;20208;-77
2021/11/02 01:41:33;;;;;;;9.50;1.43;;;;;;;;;;4882040;28;20658;-77
2021/11/02 01:43:57;;;;;;;10.00;1.50;;;9.50;49.00;;;;;;4881501;28;20225;-77
2021/11/02 01:46:23;;;;;;;11.73;1.70;;;9.40;48.90;;;;;;4890290;28;20234;-77
2021/11/02 01:48:50;;;;;;;17.53;2.40;;;9.50;48.90;;;;;;4882714;28;20229;-77
2021/11/02 01:51:14;;;;;;;13.30;1.87;;;;;;;;;;4883506;28;20209;-77
2021/11/02 01:53:39;;;;;;;17.43;2.30;;;;;;;;;;4883083;28;20230;-77
2021/11/02 01:56:05;;;;;;;8.43;1.30;;;;;;;;;;4883422;28;20216;-81
2021/11/02 01:58:29;;;;;;;11.93;1.67;;;9.30;47.50;;;;;;4884904;28;20671;-78
2021/11/02 02:00:59;;;;;;;5.43;0.93;;;9.30;48.70;;;;;;4889577;28;20208;-77
2021/11/02 02:03:36;;;;;;;10.00;1.60;;;9.30;48.70;;;;;;4890059;28;20262;-77
2021/11/02 02:06:10;;;;;;;8.83;1.33;;;9.30;48.60;;;;;;4881642;28;20650;-77
2021/11/02 02:08:41;;;;;;;9.70;1.37;;;9.30;48.70;;;;;;4889146;28;20255;-81
2021/11/02 02:11:10;;;;;;;6.27;1.00;;;9.00;47.40;;;;;;4889143;28;20568;-77
2021/11/02 02:13:54;;;;;;;18.90;2.60;;;9.00;48.40;;;;;;4882572;28;20255;-78
2021/11/02 02:16:23;;;;;;;8.77;1.43;;;9.10;48.40;;;;;;4884210;28;20205;-79
2021/11/02 02:18:57;;;;;;;6.63;1.10;;;9.40;47.90;;;;;;4867888;28;20189;-77
2021/11/02 02:21:39;;;;;;;11.20;1.73;;;9.20;48.60;;;;;;4886555;28;20197;-78
2021/11/02 02:24:22;;;;;;;7.57;1.20;;;9.20;48.20;;;;;;4882741;28;20242;-78
2021/11/02 02:26:59;;;;;;;17.47;2.33;;;9.30;48.80;;;;;;4884600;28;20231;-77
2021/11/02 02:29:25;;;;;;;6.53;1.07;;;9.20;48.70;;;;;;4872474;28;20643;-78
2021/11/02 02:31:50;;;;;;;18.97;2.60;;;9.10;47.50;;;;;;4883088;28;20197;-78
2021/11/02 02:34:17;;;;;;;9.03;1.37;;;9.30;48.80;;;;;;4882364;28;20235;-77
2021/11/02 02:36:45;;;;;;;17.33;2.27;;;9.30;48.80;;;;;;4884644;28;20567;-78
2021/11/02 02:39:10;;;;;;;11.57;1.70;;;9.50;48.30;;;;;;4881768;28;20643;-79
2021/11/02 02:41:35;;;;;;;16.20;2.17;;;9.30;49.00;;;;;;4882426;28;20206;-77
2021/11/02 02:44:00;;;;;;;15.20;1.97;;;9.60;47.80;;;;;;4882139;28;20217;-76
2021/11/02 02:46:24;;;;;;;10.33;1.50;;;9.40;48.90;;;;;;4883844;28;20204;-78
2021/11/02 02:48:48;;;;;;;19.33;2.60;;;;;;;;;;4887515;28;20267;-79
2021/11/02 02:51:14;;;;;;;7.30;1.13;;;9.30;48.80;;;;;;4883231;28;20212;-77
2021/11/02 02:53:41;;;;;;;12.50;1.77;;;9.30;48.80;;;;;;4886835;28;20303;-77
2021/11/02 02:56:08;;;;;;;7.67;1.10;;;9.10;47.30;;;;;;4887983;28;20192;-82
2021/11/02 02:58:34;;;;;;;6.27;1.07;;;9.20;48.40;;;;;;4881726;28;20194;-77
2021/11/02 03:00:59;;;;;;;12.00;1.67;;;;;;;;;;4882389;28;20259;-77
2021/11/02 03:03:25;;;;;;;8.60;1.27;;;9.20;48.00;;;;;;4868382;28;20690;-76
2021/11/02 03:05:49;;;;;;;18.07;2.40;;;9.50;46.90;;;;;;4893454;28;20185;-83
2021/11/02 03:08:12;;;;;;;11.43;1.63;;;8.90;47.10;;;;;;4884680;28;20217;-77
2021/11/02 03:10:38;;;;;;;19.10;2.40;;;9.00;47.60;;;;;;4881597;28;20273;-78
2021/11/02 03:13:05;;;;;;;11.97;1.70;;;8.10;46.20;;;;;;4889180;28;20262;-78
2021/11/02 03:18:28;;;;;;;9.27;1.43;;;8.70;41.80;;;;;;4886660;28;20234;-78
2021/11/02 03:48:17;;;;;;;7.83;1.20;;;9.30;83.10;;;;;;4879778;28;20200;-76
2021/11/02 03:51:01;;;;;;;17.27;2.33;;;8.80;50.70;;;;;;4867523;28;20194;-77
2021/11/02 03:56:16;;;;;;;8.87;1.50;;;8.90;36.40;;;;;;4884946;28;20189;-79
2021/11/02 03:58:53;;;;;;;15.43;2.20;;;8.90;45.60;;;;;;4884509;28;20205;-78
2021/11/02 04:01:28;;;;;;;12.00;1.73;;;9.20;86.60;;;;;;4889687;28;20285;-77
2021/11/02 05:48:06;;;;;;;10.13;1.57;;;8.50;93.30;;;;;;4866503;28;20189;-79
2021/11/02 05:56:09;;;;;;;9.20;1.50;;;8.40;89.80;;;;;;4881220;28;20201;-82
2021/11/02 05:58:38;;;;;;;10.97;1.77;;;8.40;89.80;;;;;;4878699;28;20454;-83
2021/11/02 06:01:12;;;;;;;14.47;2.40;;;;;;;;;;4882736;28;20208;-80
2021/11/02 06:03:49;;;;;;;5.20;1.00;;;8.60;78.10;;;;;;4881892;28;20193;-79
2021/11/02 06:06:22;;;;;;;12.00;1.90;;;8.60;74.90;;;;;;4882627;28;20196;-83
2021/11/02 06:09:07;;;;;;;12.17;1.83;;;8.10;72.20;;;;;;4884660;28;20673;-83
2021/11/02 06:28:36;;;;;;;7.57;1.30;;;8.50;72.20;;;;;;4849575;28;20198;-83
2021/11/02 06:31:04;;;;;;;6.43;1.13;;;8.60;73.90;;;;;;4874267;28;20243;-85
2021/11/02 06:33:41;;;;;;;6.70;1.13;;;;;;;;;;4881321;28;20184;-79
2021/11/02 06:39:13;;;;;;;9.87;1.60;;;;;;;;;;4883603;28;20655;-83
2021/11/02 06:47:47;;;;;;;12.40;1.80;;;8.50;73.30;;;;;;4882713;28;20262;-82
2021/11/02 06:53:12;;;;;;;11.07;1.63;;;8.50;71.20;;;;;;4879536;28;20212;-84
2021/11/02 07:17:36;;;;;;;11.33;1.90;;;;;;;;;;4871153;28;20209;-77
2021/11/02 07:20:04;;;;;;;5.73;1.07;;;9.00;94.50;;;;;;4881279;28;20210;-77
2021/11/02 07:25:22;;;;;;;5.07;0.87;;;9.10;99.90;;;;;;4892143;28;20669;-80
2021/11/02 08:46:54;;;;;;;11.67;1.77;;;9.70;99.90;;;;;;4849660;28;20222;-77
2021/11/02 08:49:18;;;;;;;13.10;1.97;;;;;;;;;;4850842;28;20287;-78
2021/11/02 08:51:41;;;;;;;8.40;1.30;;;;;;;;;;4837409;28;20214;-79
2021/11/02 08:54:04;;;;;;;24.57;3.30;;;;;;;;;;4841310;28;20683;-78
2021/11/02 08:56:26;;;;;;;17.60;2.57;;;;;;;;;;4835490;28;20771;-80
2021/11/02 08:58:51;;;;;;;11.73;1.73;;;9.70;43.00;;;;;;4835431;28;20202;-78
2021/11/02 09:01:16;;;;;;;20.70;2.77;;;;;;;;;;4816646;28;20274;-78
2021/11/02 09:03:46;;;;;;;11.20;1.67;;;9.70;31.80;;;;;;4836529;28;20221;-78
2021/11/02 09:06:11;;;;;;;21.97;2.97;;;9.70;99.90;;;;;;4852247;28;20244;-79
2021/11/02 09:08:41;;;;;;;13.60;2.07;;;9.80;99.90;;;;;;4853841;28;20267;-79
2021/11/02 09:11:04;;;;;;;24.10;3.27;;;;;;;;;;4849979;28;20558;-79
2021/11/02 09:13:27;;;;;;;14.37;2.10;;;;;;;;;;4853424;28;20190;-81
2021/11/02 09:15:54;;;;;;;12.57;1.87;;;9.90;39.10;;;;;;4836733;28;20195;-81
2021/11/02 09:18:18;;;;;;;16.00;2.23;;;;;;;;;;4854464;28;20276;-78
2021/11/02 09:20:44;;;;;;;11.57;1.73;;;10.00;51.10;;;;;;4854316;28;20197;-76
2021/11/02 09:23:09;;;;;;;20.63;2.87;;;10.10;53.60;;;;;;4839614;28;20246;-76
2021/11/02 09:25:32;;;;;;;22.10;3.00;;;;;;;;;;4852993;28;20199;-76
2021/11/02 09:27:55;;;;;;;12.07;1.90;;;;;;;;;;4853277;28;20190;-77
2021/11/02 09:30:21;;;;;;;12.00;1.77;;;10.20;71.50;;;;;;4853660;28;20206;-76
2021/11/02 09:32:45;;;;;;;24.43;3.43;;;10.20;73.80;;;;;;4854589;28;20240;-76
2021/11/02 09:35:09;;;;;;;15.43;2.37;;;;;;;;;;4854422;28;20197;-75
2021/11/02 09:37:36;;;;;;;16.77;2.57;;;10.30;78.20;;;;;;4846666;28;20243;-78
2021/11/02 09:40:08;;;;;;;12.63;1.80;;;10.30;92.30;;;;;;4853150;28;20206;-76
2021/11/02 09:43:25;;;;;;;14.90;2.23;;;10.30;99.90;;;;;;4851597;28;20264;-75
2021/11/02 09:46:33;;;;;;;15.77;2.27;;;10.30;31.30;;;;;;4799424;28;20672;-74
2021/11/02 09:49:24;;;;;;;7.97;1.40;;;10.30;93.40;;;;;;4758304;29;20235;-79
2021/11/02 09:52:31;;;;;;;9.60;1.50;;;10.20;86.60;;;;;;4832708;28;20206;-76
2021/11/02 09:55:23;;;;;;;10.70;1.63;;;10.20;88.40;;;;;;4828181;28;20251;-75
2021/11/02 09:58:16;;;;;;;8.67;1.40;;;10.00;55.00;;;;;;4790742;28;20598;-76
2021/11/02 10:01:03;;;;;;;82.73;10.73;;;10.30;78.50;;;;;;4809542;28;20715;-75
2021/11/02 10:04:02;;;;;;;16.77;2.47;;;10.30;75.10;;;;;;4826153;28;20683;-76
2021/11/02 10:06:40;;;;;;;16.33;2.37;;;10.30;88.30;;;;;;4831115;28;20264;-76
2021/11/02 10:09:09;;;;;;;20.43;2.83;;;10.30;59.20;;;;;;4836992;28;20741;-76
2021/11/02 10:11:39;;;;;;;18.10;2.70;;;10.30;44.70;;;;;;4834410;28;20624;-75
2021/11/02 10:14:48;;;;;;;22.13;2.93;;;10.30;87.10;;;;;;4833335;28;20230;-75
2021/11/02 10:18:17;;;;;;;12.70;1.97;;;10.90;79.30;;;;;;4833616;28;20656;-75
2021/11/02 10:21:08;;;;;;;15.93;2.40;;;10.30;71.70;;;;;;4753415;29;20190;-77
2021/11/02 10:23:50;;;;;;;12.83;1.90;;;10.60;55.90;;;;;;4833899;28;20195;-74
2021/11/02 10:26:39;;;;;;;23.00;3.37;;;10.30;71.30;;;;;;4837338;28;20194;-75
2021/11/02 10:29:43;;;;;;;14.90;2.27;;;10.40;86.80;;;;;;4837493;28;20805;-76
2021/11/02 10:32:12;;;;;;;16.83;2.57;;;10.30;93.50;;;;;;4840610;28;20202;-76
2021/11/02 10:34:44;;;;;;;14.87;2.13;;;10.30;92.00;;;;;;4837445;28;20256;-75
2021/11/02 10:37:22;;;;;;;21.50;3.17;;;10.30;80.90;;;;;;4820956;28;20195;-75
2021/11/02 10:40:06;;;;;;;5.27;0.90;;;10.40;82.30;;;;;;4825734;28;20694;-75
2021/11/02 10:42:48;;;;;;;15.27;2.27;;;10.40;64.40;;;;;;4830827;28;20195;-75
2021/11/02 10:45:13;;;;;;;20.13;2.90;;;;;;;;;;4804321;28;20692;-76
2021/11/02 10:47:45;;;;;;;13.93;2.23;;;10.40;87.50;;;;;;4837298;28;20186;-76
2021/11/02 10:50:10;;;;;;;19.27;2.63;;;10.50;99.90;;;;;;4819733;28;20770;-74
2021/11/02 10:52:36;;;;;;;11.87;1.90;;;10.50;83.10;;;;;;4820953;28;20188;-76
2021/11/02 10:55:18;;;;;;;12.47;1.73;;;10.50;33.90;;;;;;4803590;28;20204;-76
2021/11/02 10:58:14;;;;;;;9.97;1.57;;;10.50;46.80;;;;;;4820526;28;20219;-75
2021/11/02 11:00:37;;;;;;;75.87;10.10;;;10.50;42.00;;;;;;4824485;28;20702;-77
2021/11/02 11:03:08;;;;;;;24.53;3.57;;;10.50;99.90;;;;;;4835958;28;20622;-75
2021/11/02 11:05:33;;;;;;;15.90;2.37;;;10.50;92.80;;;;;;4831449;28;20183;-76
2021/11/02 11:07:59;;;;;;;10.57;1.70;;;10.50;55.60;;;;;;4837102;28;20249;-75
2021/11/02 11:10:25;;;;;;;20.17;2.87;;;10.40;99.90;;;;;;4837056;28;20245;-77
2021/11/02 11:12:51;;;;;;;21.47;3.20;;;10.40;73.30;;;;;;4836148;28;20249;-76
2021/11/02 11:15:14;;;;;;;24.57;3.43;;;;;;;;;;4836492;28;20203;-76
2021/11/02 11:17:37;;;;;;;20.33;2.77;;;;;;;;;;4840618;28;20252;-76
2021/11/02 11:20:13;;;;;;;19.90;2.93;;;10.50;67.90;;;;;;4820603;28;20773;-76
2021/11/02 11:22:39;;;;;;;11.90;1.73;;;10.50;56.80;;;;;;4829177;28;20202;-76
2021/11/02 11:25:05;;;;;;;19.10;2.63;;;10.60;79.50;;;;;;4836190;28;20207;-76
2021/11/02 11:27:28;;;;;;;13.30;2.00;;;10.50;99.90;;;;;;4845539;28;20229;-76
2021/11/02 11:29:57;;;;;;;9.47;1.53;;;10.50;93.20;;;;;;4836683;28;20555;-75
2021/11/02 11:32:20;;;;;;;12.97;2.00;;;;;;;;;;4834086;28;20222;-76
2021/11/02 11:34:45;;;;;;;11.60;1.87;;;10.60;31.30;;;;;;4837539;28;20190;-76
2021/11/02 11:37:12;;;;;;;20.93;3.03;;;10.60;36.30;;;;;;4837174;28;20604;-76
2021/11/02 11:39:35;;;;;;;16.30;2.40;;;10.50;88.10;;;;;;4820667;28;20242;-75
2021/11/02 11:41:59;;;;;;;18.53;2.77;;;10.60;89.20;;;;;;4836188;28;20206;-76
2021/11/02 11:44:22;;;;;;;17.00;2.63;;;10.50;85.50;;;;;;4840378;28;20230;-76
2021/11/02 11:46:47;;;;;;;13.97;2.07;;;10.60;90.20;;;;;;4835915;28;20730;-76
2021/11/02 11:49:22;;;;;;;19.73;2.83;;;10.60;84.00;;;;;;4819977;28;20196;-78
2021/11/02 11:51:55;;;;;;;13.30;2.10;;;10.60;83.40;;;;;;4833061;28;20222;-77
2021/11/02 11:54:20;;;;;;;8.53;1.37;;;10.70;91.90;;;;;;4834156;28;20688;-78
2021/11/02 11:56:43;;;;;;;10.93;1.73;;;;;;;;;;4836545;28;20206;-77
2021/11/02 11:59:16;;;;;;;19.07;2.80;;;10.60;35.50;;;;;;4835991;28;20213;-77
2021/11/02 12:01:49;;;;;;;6.77;1.27;;;10.40;90.10;;;;;;4828268;28;20191;-78
2021/11/02 12:04:22;;;;;;;20.03;2.93;;;10.40;62.20;;;;;;4833084;28;20664;-76
2021/11/02 12:06:50;;;;;;;13.37;2.07;;;10.40;80.20;;;;;;4832931;28;20194;-76
2021/11/02 12:09:18;;;;;;;22.67;3.20;;;10.20;85.50;;;;;;4834266;28;20198;-77
2021/11/02 12:11:43;;;;;;;12.70;1.90;;;10.30;62.50;;;;;;4836234;28;20210;-77
2021/11/02 12:14:08;;;;;;;28.43;4.13;;;10.30;42.50;;;;;;4834127;28;20609;-76
2021/11/02 12:16:37;;;;;;;9.80;1.60;;;10.30;31.70;;;;;;4830211;28;20187;-76
2021/11/02 12:19:10;;;;;;;16.27;2.50;;;10.30;48.70;;;;;;4835201;28;20828;-75
2021/11/02 12:21:35;;;;;;;15.50;2.27;;;10.30;43.70;;;;;;4819670;28;20195;-75
2021/11/02 12:24:03;;;;;;;22.20;3.17;;;10.20;41.80;;;;;;4834678;28;20198;-75
2021/11/02 12:26:37;;;;;;;10.30;1.70;;;10.70;43.50;;;;;;4839824;28;20198;-75
2021/11/02 12:29:02;;;;;;;11.53;1.90;;;10.30;59.00;;;;;;4834902;28;20247;-76
2021/11/02 12:31:27;;;;;;;13.33;2.20;;;10.30;64.30;;;;;;4835272;28;20218;-76
2021/11/02 12:33:51;;;;;;;7.80;1.40;;;10.30;59.70;;;;;;4836816;28;20183;-76
2021/11/02 12:36:20;;;;;;;21.80;3.20;;;10.30;53.50;;;;;;4835381;28;20198;-75
2021/11/02 12:38:43;;;;;;;12.30;1.83;;;10.20;51.00;;;;;;4839377;28;20206;-76
2021/11/02 12:41:22;;;;;;;19.07;2.73;;;10.20;47.40;;;;;;4837732;28;20183;-75
2021/11/02 12:43:45;;;;;;;8.73;1.43;;;10.20;41.40;;;;;;4825727;28;20227;-76
2021/11/02 12:46:10;;;;;;;18.97;2.97;;;10.20;37.90;;;;;;4834623;28;20730;-75
2021/11/02 12:48:34;;;;;;;12.90;2.10;;;10.20;34.00;;;;;;4835912;28;20190;-76
2021/11/02 12:50:58;;;;;;;8.20;1.50;;;10.20;98.90;;;;;;4834807;28;20234;-78
2021/11/02 12:53:22;;;;;;;11.40;1.97;;;10.00;87.80;;;;;;4836278;28;20245;-75
2021/11/02 12:55:45;;;;;;;9.50;1.63;;;10.00;91.10;;;;;;4835646;28;20244;-74
2021/11/02 12:58:18;;;;;;;14.40;2.30;;;10.30;97.50;;;;;;4837179;28;20640;-76
2021/11/02 13:00:44;;;;;;;72.77;10.60;;;10.30;55.50;;;;;;4832952;28;20203;-76
2021/11/02 13:03:24;;;;;;;12.93;2.10;;;9.90;46.60;;;;;;4832724;28;20233;-78
2021/11/02 13:05:56;;;;;;;13.90;2.33;;;10.30;43.60;;;;;;4835267;28;20190;-75
2021/11/02 13:08:30;;;;;;;9.67;1.60;;;10.30;55.00;;;;;;4833731;28;20718;-76
2021/11/02 13:11:04;;;;;;;9.27;1.50;;;10.30;84.90;;;;;;4824669;28;20201;-78
2021/11/02 13:13:37;;;;;;;12.23;2.00;;;10.20;55.20;;;;;;4811001;28;20269;-77
2021/11/02 13:16:01;;;;;;;18.33;2.67;;;;;;;;;;4836130;28;20237;-77
2021/11/02 13:18:32;;;;;;;11.30;1.83;;;10.10;90.10;;;;;;4834322;28;20304;-75
2021/11/02 13:21:01;;;;;;;10.93;1.83;;;10.10;80.10;;;;;;4833658;28;20241;-75
2021/11/02 13:23:39;;;;;;;13.17;2.20;;;10.10;88.40;;;;;;4833696;28;20253;-76
2021/11/02 13:26:14;;;;;;;10.57;1.70;;;10.00;79.80;;;;;;4834833;28;20648;-77
2021/11/02 13:28:37;;;;;;;11.60;1.90;;;;;;;;;;4821929;28;20256;-76
2021/11/02 13:31:00;;;;;;;10.50;1.73;;;;;;;;;;4833909;28;20609;-76
2021/11/02 13:33:24;;;;;;;13.33;2.10;;;;;;;;;;4833743;28;20222;-76
2021/11/02 13:35:53;;;;;;;11.40;1.80;;;9.80;93.80;;;;;;4834868;28;20248;-77
2021/11/02 13:38:38;;;;;;;21.80;3.03;;;9.90;77.90;;;;;;4837477;28;20195;-77
2021/11/02 13:41:10;;;;;;;20.67;2.97;;;9.90;93.10;;;;;;4835710;28;20187;-76
2021/11/02 13:43:37;;;;;;;12.77;1.87;;;10.00;36.20;;;;;;4828108;28;20234;-76
2021/11/02 13:46:01;;;;;;;8.63;1.60;;;9.90;59.30;;;;;;4833402;28;20186;-75
2021/11/02 13:48:23;;;;;;;9.37;1.50;;;;;;;;;;4835774;28;20194;-75
2021/11/02 13:50:46;;;;;;;7.87;1.40;;;;;;;;;;4836214;28;20190;-75
2021/11/02 13:53:10;;;;;;;16.50;2.60;;;9.90;42.30;;;;;;4833837;28;20719;-75
2021/11/02 13:55:33;;;;;;;11.13;1.87;;;;;;;;;;4817442;28;20188;-76
2021/11/02 13:57:57;;;;;;;12.07;1.83;;;;;;;;;;4817606;28;20192;-76
2021/11/02 14:00:20;;;;;;;10.20;1.60;;;8.10;81.80;;;;;;4834630;28;20187;-76
2021/11/02 14:02:43;;;;;;;16.07;2.57;;;;;;;;;;4832522;28;20257;-74
2021/11/02 14:05:06;;;;;;;15.87;2.40;;;9.60;69.10;;;;;;4832717;28;20688;-76
2021/11/02 14:07:32;;;;;;;12.33;1.93;;;9.60;62.60;;;;;;4836114;28;20202;-75
2021/11/02 14:09:59;;;;;;;9.10;1.43;;;9.60;52.10;;;;;;4834312;28;20750;-76
2021/11/02 14:12:25;;;;;;;12.73;2.00;;;;;;;;;;4835304;28;20765;-76
2021/11/02 14:14:48;;;;;;;21.40;3.40;;;;;;;;;;4832544;28;20691;-76
2021/11/02 14:17:29;;;;;;;18.33;2.83;;;9.40;99.90;;;;;;4828166;28;20194;-75
2021/11/02 14:19:53;;;;;;;11.23;1.90;;;9.30;97.30;;;;;;4828647;28;20569;-76
2021/11/02 14:22:47;;;;;;;17.67;2.83;;;9.40;99.30;;;;;;4841297;28;20320;-76
2021/11/02 14:25:17;;;;;;;16.97;2.50;;;9.30;99.90;;;;;;4816294;28;20196;-76
2021/11/02 14:27:42;;;;;;;13.70;2.03;;;9.40;90.10;;;;;;4833843;28;20215;-75
2021/11/02 14:30:07;;;;;;;18.90;2.73;;;9.50;89.00;;;;;;4834432;28;20190;-75
2021/11/02 14:32:56;;;;;;;20.30;3.20;;;9.30;99.30;;;;;;4827925;28;20217;-75
2021/11/02 14:35:47;;;;;;;16.10;2.60;;;9.30;97.40;;;;;;4787753;28;20997;-76
2021/11/02 14:38:16;;;;;;;17.53;2.70;;;9.20;95.00;;;;;;4837442;28;20190;-78
2021/11/02 14:40:43;;;;;;;33.00;4.60;;;9.10;86.40;;;;;;4801122;28;20196;-77
2021/11/02 14:43:31;;;;;;;15.73;2.30;;;9.10;82.60;;;;;;4818991;28;20222;-76
2021/11/02 14:45:55;;;;;;;19.63;2.90;;;9.10;84.00;;;;;;4830319;28;20186;-76
2021/11/02 14:48:49;;;;;;;11.00;1.83;;;8.90;85.70;;;;;;4833856;28;20245;-79
2021/11/02 14:51:28;;;;;;;17.40;2.67;;;9.10;89.40;;;;;;4832444;28;20199;-77
2021/11/02 14:53:51;;;;;;;13.27;2.20;;;;;;;;;;4832496;28;20230;-78
2021/11/02 14:56:28;;;;;;;14.93;2.37;;;9.00;91.80;;;;;;4834898;28;20194;-77
2021/11/02 14:58:52;;;;;;;9.43;1.50;;;9.00;83.00;;;;;;4832428;28;20264;-76
2021/11/02 15:01:18;;;;;;;23.27;3.33;;;8.80;81.80;;;;;;4813961;28;20203;-77
2021/11/02 15:03:42;;;;;;;13.07;2.13;;;9.00;81.00;;;;;;4831584;28;20233;-76
2021/11/02 15:06:05;;;;;;;14.67;2.33;;;9.00;78.30;;;;;;4834244;28;20187;-76
2021/11/02 15:08:30;;;;;;;9.30;1.53;;;9.00;78.30;;;;;;4835949;28;20263;-76
2021/11/02 15:10:53;;;;;;;7.43;1.27;;;9.90;73.30;;;;;;4837741;28;20241;-76
2021/11/02 15:13:21;;;;;;;13.83;2.33;;;9.00;80.40;;;;;;4836158;28;20253;-76
2021/11/02 15:15:44;;;;;;;15.80;2.67;;;9.20;76.40;;;;;;4836130;28;20618;-76
2021/11/02 15:18:08;;;;;;;13.53;2.27;;;;;;;;;;4820322;28;20191;-76
2021/11/02 15:20:31;;;;;;;10.73;1.93;;;9.20;74.40;;;;;;4835740;28;20214;-77
2021/11/02 15:22:55;;;;;;;27.30;4.27;;;9.00;75.10;;;;;;4835571;28;20186;-76
2021/11/02 15:25:18;;;;;;;11.30;1.90;;;;;;;;;;4842756;28;20190;-76
2021/11/02 15:27:43;;;;;;;12.57;2.13;;;;;;;;;;4838108;28;20187;-75
2021/11/02 15:30:09;;;;;;;19.73;3.00;;;9.00;78.70;;;;;;4835772;28;20541;-75
2021/11/02 15:32:38;;;;;;;13.10;2.00;;;9.00;82.40;;;;;;4837343;28;20289;-76
2021/11/02 15:35:04;;;;;;;10.23;1.70;;;9.00;82.50;;;;;;4814407;28;20211;-75
2021/11/02 15:37:29;;;;;;;10.37;1.83;;;10.10;82.20;;;;;;4830553;28;20195;-76
2021/11/02 15:39:55;;;;;;;11.03;1.83;;;8.90;82.90;;;;;;4836034;28;20195;-76
2021/11/02 15:42:24;;;;;;;13.20;2.27;;;8.90;83.70;;;;;;4821665;28;20230;-76
2021/11/02 15:44:46;;;;;;;9.70;1.77;;;;;;;;;;4835932;28;20230;-75
2021/11/02 15:47:15;;;;;;;14.43;2.37;;;9.30;74.80;;;;;;4836313;28;20191;-76
2021/11/02 15:49:38;;;;;;;14.57;2.27;;;;;;;;;;4837853;28;20249;-75
2021/11/02 15:52:03;;;;;;;6.47;1.27;;;;;;;;;;4836560;28;20187;-79
2021/11/02 15:54:27;;;;;;;11.43;1.97;;;8.90;75.00;;;;;;4834767;28;20210;-76
2021/11/02 15:56:49;;;;;;;8.23;1.40;;;9.30;75.10;;;;;;4820236;28;20723;-76
2021/11/02 15:59:12;;;;;;;16.40;2.80;;;;;;;;;;4835761;28;20791;-76
2021/11/02 16:01:37;;;;;;;14.20;2.47;;;8.90;77.80;;;;;;4817697;28;20254;-75
2021/11/02 16:04:23;;;;;;;11.43;1.97;;;8.90;76.30;;;;;;4835515;28;20281;-78
2021/11/02 16:07:04;;;;;;;9.27;1.60;;;8.80;77.20;;;;;;4831564;28;20213;-75
2021/11/02 16:09:44;;;;;;;7.17;1.30;;;8.80;76.50;;;;;;4835996;28;20688;-75
2021/11/02 16:12:11;;;;;;;12.63;2.13;;;8.90;74.20;;;;;;4838105;28;20190;-76
2021/11/02 16:14:34;;;;;;;13.50;2.20;;;;;;;;;;4813576;28;20273;-76
2021/11/02 16:16:58;;;;;;;8.57;1.50;;;8.80;75.90;;;;;;4838269;28;20194;-75
2021/11/02 16:19:22;;;;;;;8.10;1.37;;;8.80;76.70;;;;;;4836699;28;20202;-76
2021/11/02 16:21:47;;;;;;;7.90;1.47;;;8.70;73.30;;;;;;4837160;28;20241;-75
2021/11/02 16:24:12;;;;;;;18.07;2.87;;;8.70;72.40;;;;;;4837526;28;20191;-76
2021/11/02 16:26:39;;;;;;;11.10;1.80;;;8.70;73.10;;;;;;4837494;28;20261;-74
2021/11/02 16:29:08;;;;;;;6.40;1.17;;;8.40;71.50;;;;;;4836457;28;20211;-76
2021/11/02 16:31:31;;;;;;;8.20;1.53;;;;;;;;;;4829923;28;20203;-79
2021/11/02 16:33:55;;;;;;;8.53;1.60;;;8.60;72.80;;;;;;4836795;28;20369;-75
2021/11/02 16:36:24;;;;;;;14.33;2.40;;;8.60;71.00;;;;;;4837279;28;20187;-77
2021/11/02 16:38:46;;;;;;;14.60;2.43;;;8.30;66.10;;;;;;4836713;28;20645;-75
2021/11/02 16:41:20;;;;;;;13.60;2.27;;;8.30;69.70;;;;;;4836341;28;20206;-75
2021/11/02 16:43:49;;;;;;;11.53;1.77;;;8.20;67.60;;;;;;4819323;28;20242;-76
2021/11/02 16:46:21;;;;;;;25.73;3.60;;;8.50;70.40;;;;;;4832848;28;20186;-76
2021/11/02 16:48:46;;;;;;;10.47;1.77;;;9.00;67.20;;;;;;4836614;28;20225;-78
2021/11/02 16:51:10;;;;;;;11.80;1.93;;;8.60;70.40;;;;;;4837230;28;20183;-76
2021/11/02 16:53:34;;;;;;;9.23;1.60;;;8.70;71.10;;;;;;4819458;28;20262;-76
2021/11/02 16:56:02;;;;;;;6.37;1.20;;;8.80;69.40;;;;;;4834963;28;20600;-75
2021/11/02 16:58:47;;;;;;;6.30;1.10;;;8.40;70.70;;;;;;4835745;28;20203;-75
2021/11/02 17:01:25;;;;;;;16.20;2.63;;;8.60;76.30;;;;;;4834813;28;20233;-75
2021/11/02 17:03:48;;;;;;;8.47;1.53;;;;;;;;;;4836706;28;20595;-79
2021/11/02 17:06:13;;;;;;;18.97;2.70;;;8.60;75.40;;;;;;4835866;28;20207;-75
2021/11/02 17:08:37;;;;;;;10.73;1.63;;;8.60;71.50;;;;;;4835507;28;20204;-76
2021/11/02 17:11:00;;;;;;;8.20;1.37;;;;;;;;;;4819450;28;20199;-75
2021/11/02 17:13:25;;;;;;;6.57;1.20;;;8.60;75.70;;;;;;4836820;28;20285;-76
2021/11/02 17:15:50;;;;;;;8.30;1.47;;;8.60;76.00;;;;;;4839818;28;20194;-78
2021/11/02 17:18:15;;;;;;;12.97;2.20;;;8.60;71.40;;;;;;4834870;28;20257;-75
2021/11/02 17:20:39;;;;;;;6.80;1.20;;;8.60;74.90;;;;;;4836034;28;20206;-74
2021/11/02 17:23:02;;;;;;;7.30;1.30;;;8.60;77.70;;;;;;4836812;28;20244;-75
2021/11/02 17:25:28;;;;;;;7.30;1.30;;;8.00;78.30;;;;;;4837116;28;20345;-76
2021/11/02 17:27:52;;;;;;;7.27;1.30;;;8.10;85.40;;;;;;4835574;28;20207;-75
2021/11/02 17:30:19;;;;;;;13.97;2.40;;;8.50;89.30;;;;;;4835976;28;20241;-75
2021/11/02 17:32:43;;;;;;;5.43;1.10;;;8.50;85.80;;;;;;4838704;28;20241;-76
2021/11/02 17:35:06;;;;;;;7.43;1.27;;;8.40;89.40;;;;;;4834628;28;20226;-75
2021/11/02 17:37:30;;;;;;;7.40;1.33;;;8.40;94.60;;;;;;4836862;28;20612;-75
2021/11/02 17:39:53;;;;;;;6.33;1.20;;;;;;;;;;4839721;28;20187;-75
2021/11/02 17:42:18;;;;;;;12.80;2.17;;;8.40;97.00;;;;;;4814744;28;20194;-75
2021/11/02 17:44:43;;;;;;;11.27;2.00;;;8.30;98.30;;;;;;4832305;28;20833;-75
2021/11/02 17:47:09;;;;;;;10.07;1.73;;;8.70;91.50;;;;;;4840409;28;20190;-76
2021/11/02 17:49:32;;;;;;;11.20;1.97;;;;;;;;;;4834230;28;20199;-75
2021/11/02 17:51:57;;;;;;;10.30;1.80;;;8.30;90.50;;;;;;4819088;28;20204;-75